Airfield :
LOGIN :

Register | Disclaimer

   EN    FR    IT 

 










Legend :    VFR   Marginal VFR   IFR   Intensive IFR   Very Intensive IFR
Visi :
Ceiling :
>= 8 km
>= 3000ft
5 to 8 km
1000 to 3000 ft
1500m to 5 km
500 to 1000 ft
800 to 1500m
200 to 500 ft
< 800m
< 200 ft
Symbols :   Thunderstorms  Fog  Heavy snow  Heavy precipitations  Wind > 20 kt
SIGMETs :     Misc.  Thunderstorms  Icing  Turbulence  Mountain Waves  Volcanic Ashes







- Airport Elevation : 63 ft
- IATA code : BZM


EHWO - Woensdrecht Airbase

CURRENT METAR :
  • 190917Z AUTO 05013KT 350V100 9999 SCT014 OVC017 05/03 Q1021 GRN 05015KT 9999 BKN025 TEMPO 05012G22KT BKN015

EXPIRED METARs :
  • 190905Z AUTO 04013KT 350V080 9999 FEW014 BKN016 OVC020 05/03 Q1021 WHT 05015KT 9999 BKN025 TEMPO 05012G22KT BKN015
  • 190859Z AUTO 04010KT 010V090 9999 BKN014 OVC016 05/03 Q1021 GRN 05015KT 9999 BKN025 TEMPO 05012G22KT BKN015
  • 190855Z AUTO 04010KT 010V090 9999 SCT013 OVC015 05/03 Q1021 GRN 05015KT 9999 BKN025 TEMPO 05012G22KT BKN015
  • 190847Z AUTO 05009KT 350V080 9999 BKN014 OVC016 05/03 Q1021 GRN 05015KT 9999 BKN025 TEMPO 05012G22KT BKN015
  • 190830Z AUTO 05011KT 350V090 9999 SCT013 OVC016 05/03 Q1021 GRN 05015KT 9999 BKN025 TEMPO 05012G22KT BKN015
  • 190820Z AUTO 05012KT 350V090 9999 FEW012 BKN015 OVC018 05/03 Q1022 WHT 05015KT 9999 BKN025 TEMPO 05012G22KT BKN015
  • 190808Z AUTO 05013KT 010V090 9999 BKN015 BKN019 OVC023 05/03 Q1022 WHT 05015KT 9999 BKN025 TEMPO 05012G22KT SCT015
  • 190755Z AUTO 05012KT 010V080 9999 FEW013 SCT017 BKN021 05/03 Q1022 WHT 05015KT 9999 BKN025 TEMPO SCT015
  • 190729Z AUTO 04011KT 340V090 9999 FEW019 BKN023 OVC027 05/03 Q1022 WHT 05015KT 9999 BKN025 TEMPO SCT015
  • 190712Z AUTO 04010KT 360V080 9999 SCT016 BKN021 BKN025 05/03 Q1022 WHT 05015KT 9999 BKN025 TEMPO SCT015
  • 190703Z AUTO 04010KT 350V090 9999 FEW017 SCT024 BKN028 05/03 Q1022 WHT 05015KT 9999 BKN025 TEMPO SCT015
  • 190655Z AUTO 04011KT 360V080 9999 FEW022 BKN028 OVC031 05/03 Q1022 BLU 05015KT 9999 BKN025 TEMPO SCT015
  • 190633Z AUTO 04010KT 350V090 9999 SCT029 OVC034 04/03 Q1022 BLU 05015KT 9999 BKN025 TEMPO SCT015
  • 190625Z AUTO 04010KT 330V130 9999 FEW018 SCT026 OVC029 05/03 Q1022 BLU 05015KT 9999 SCT017 BKN025

TAF TAF EHWO
Valid from the 19 at 06:00 until the 19 at 18:00 UTC


190526Z 1906/1918 04010KT 9999 SCT015 SCT025
PROB40
TEMPO 1906/1910 FEW008 SCT012 BKN020
BECMG 1909/1911 06015G25KT
No reported NOTAMs for that airfield.



MET'MAP, your aeronautical weather chart ! - Copyright ORBIFLY December 2007 - Disclaimer

ORBIFLY MET'MAP TEAM :

Programming & Development : Alexandra Zaïnal
Concept & Development : Baudouin d'Aumeries
Co-Development & Prog : Marc-Olivier Méhu
Technical & hardware support : Manuel Goepfert

Contact : metmap@orbifly.com




SOURCES & CREDITS :

   NOAA